CheckWX is a tool to help pilots better visualize weather data.  It is not intended as a substitute for an official pre-flight weather briefing.

09:12:13 UTC

KBGM TAF
Greater Binghamton / Edwin A Link Field Airport
Binghamton, New York, USA
KBGM 180544Z 1806/1906 13009KT P6SM SCT035 BKN050 OVC080 TEMPO 1812/1814 3SM -SN BLSN OVC015 FM181400 17017G27KT 1SM -SN BLSN OVC008 FM181700 18016G24KT 4SM -RA OVC012 WS020/19045KT FM182100 21011KT 3SM -RA OVC009 FM190300 30010KT P6SM BKN022

Feb-18@
06:00 UTC

Feb-18 @ 06:00 UTC

Feb-18@
14:00 UTC

Feb-18 @ 14:00 UTC

KBGM 180544Z 1806/1906 13009KT P6SM SCT035 BKN050 OVC080
Wind
  • 130° at 9 KTS
Cloud Levels
  • Scattered at 3,500' AGL
  • Broken at 5,000' AGL
  • Overcast at 8,000' AGL

Feb-18@
12:00 UTC

Feb-18 @ 12:00 UTC

Feb-18@
14:00 UTC

Feb-18 @ 14:00 UTC

TEMPO 1812/1814 3SM -SN BLSN OVC015

Temporary

Temporary Changes expected for less than half the time period

Conditions
Light Snow, Blowing Snow
Cloud Levels
  • Overcast at 1,500' AGL

Feb-18@
14:00 UTC

Feb-18 @ 14:00 UTC

Feb-18@
17:00 UTC

Feb-18 @ 17:00 UTC

FM181400 17017G27KT 1SM -SN BLSN OVC008

From

From Standard forecast or significant change

Wind
  • 170° at 17 KTS
  • {Gusting to 27 KTS
Conditions
Light Snow, Blowing Snow
Cloud Levels
  • Overcast at 800' AGL

Feb-18@
17:00 UTC

Feb-18 @ 17:00 UTC

Feb-18@
21:00 UTC

Feb-18 @ 21:00 UTC

FM181700 18016G24KT 4SM -RA OVC012 WS020/19045KT

From

From Standard forecast or significant change

Wind
  • 180° at 16 KTS
  • {Gusting to 24 KTS
Conditions
Light Rain
Cloud Levels
  • Overcast at 1,200' AGL

Feb-18@
21:00 UTC

Feb-18 @ 21:00 UTC

Feb-19@
03:00 UTC

Feb-19 @ 03:00 UTC

FM182100 21011KT 3SM -RA OVC009

From

From Standard forecast or significant change

Wind
  • 210° at 11 KTS
Conditions
Light Rain
Cloud Levels
  • Overcast at 900' AGL

Feb-19@
03:00 UTC

Feb-19 @ 03:00 UTC

Feb-19@
06:00 UTC

Feb-19 @ 06:00 UTC

FM190300 30010KT P6SM BKN022

From

From Standard forecast or significant change

Wind
  • 300° at 10 KTS
Cloud Levels
  • Broken at 2,200' AGL